Terminal Aerodrome Forecast
Issued by NWS Indianapolis, IN

Home | Current Version | Previous Version | Text Only | Print | Product List | Glossary On
Versions: 1 2 3 4 5 6 7 8 9 10 11 12 13 14 15 16 17 18 19 20 21 22 23 24 25 26 27
000
FTUS43 KIND 280500
TAFIND
TAF
KIND 280520Z 2806/0112 06003KT P6SM OVC200
     FM281000 10006KT P6SM OVC100
     FM281800 10008KT P6SM BKN040 OVC080
     FM010200 10006KT 5SM -SHSN OVC025
     FM010400 12005KT 2SM -SN OVC010=

USA.gov is the U.S. government's official web portal to all federal, state and local government web resources and services.